sensor_id;sensor_type;location;lat;lon;timestamp;P1;durP1;ratioP1;P2;durP2;ratioP2
17993;SDS011;9122;48.406;9.984;2024-01-11T00:02:01;45.67;;;29.27;;
17993;SDS011;9122;48.406;9.984;2024-01-11T00:04:45;49.83;;;30.03;;
17993;SDS011;9122;48.406;9.984;2024-01-11T00:07:29;46.37;;;28.67;;
17993;SDS011;9122;48.406;9.984;2024-01-11T00:10:13;47.73;;;30.67;;
17993;SDS011;9122;48.406;9.984;2024-01-11T00:12:58;47.37;;;29.93;;
17993;SDS011;9122;48.406;9.984;2024-01-11T00:15:43;46.40;;;30.77;;
17993;SDS011;9122;48.406;9.984;2024-01-11T00:18:27;52.13;;;31.90;;
17993;SDS011;9122;48.406;9.984;2024-01-11T00:21:12;52.13;;;31.67;;
17993;SDS011;9122;48.406;9.984;2024-01-11T00:23:56;54.10;;;31.17;;
17993;SDS011;9122;48.406;9.984;2024-01-11T00:26:41;48.93;;;31.80;;
17993;SDS011;9122;48.406;9.984;2024-01-11T00:29:25;47.30;;;30.63;;
17993;SDS011;9122;48.406;9.984;2024-01-11T00:32:10;53.00;;;31.47;;
17993;SDS011;9122;48.406;9.984;2024-01-11T00:34:56;50.57;;;31.50;;
17993;SDS011;9122;48.406;9.984;2024-01-11T00:37:40;52.87;;;31.80;;
17993;SDS011;9122;48.406;9.984;2024-01-11T00:40:25;53.37;;;31.73;;
17993;SDS011;9122;48.406;9.984;2024-01-11T00:43:09;52.07;;;30.00;;
17993;SDS011;9122;48.406;9.984;2024-01-11T00:45:54;49.60;;;31.20;;
17993;SDS011;9122;48.406;9.984;2024-01-11T00:48:38;50.23;;;31.30;;
17993;SDS011;9122;48.406;9.984;2024-01-11T00:51:22;55.17;;;32.70;;
17993;SDS011;9122;48.406;9.984;2024-01-11T00:54:06;52.47;;;32.03;;
17993;SDS011;9122;48.406;9.984;2024-01-11T00:56:51;51.17;;;31.33;;
17993;SDS011;9122;48.406;9.984;2024-01-11T00:59:35;49.57;;;30.47;;
17993;SDS011;9122;48.406;9.984;2024-01-11T01:02:20;48.93;;;31.37;;
17993;SDS011;9122;48.406;9.984;2024-01-11T01:05:05;48.23;;;31.37;;
17993;SDS011;9122;48.406;9.984;2024-01-11T01:07:49;50.80;;;32.37;;
17993;SDS011;9122;48.406;9.984;2024-01-11T01:10:33;51.10;;;30.93;;
17993;SDS011;9122;48.406;9.984;2024-01-11T01:13:18;56.30;;;31.50;;
17993;SDS011;9122;48.406;9.984;2024-01-11T01:16:02;50.03;;;31.57;;
17993;SDS011;9122;48.406;9.984;2024-01-11T01:18:46;47.00;;;31.13;;
17993;SDS011;9122;48.406;9.984;2024-01-11T01:21:31;49.00;;;30.67;;
17993;SDS011;9122;48.406;9.984;2024-01-11T01:24:15;50.93;;;31.40;;
17993;SDS011;9122;48.406;9.984;2024-01-11T01:26:59;52.70;;;31.37;;
17993;SDS011;9122;48.406;9.984;2024-01-11T01:29:44;52.90;;;32.77;;
17993;SDS011;9122;48.406;9.984;2024-01-11T01:32:28;54.13;;;32.03;;
17993;SDS011;9122;48.406;9.984;2024-01-11T01:35:14;53.57;;;30.73;;
17993;SDS011;9122;48.406;9.984;2024-01-11T01:37:58;50.60;;;31.87;;
17993;SDS011;9122;48.406;9.984;2024-01-11T01:40:43;55.63;;;32.47;;
17993;SDS011;9122;48.406;9.984;2024-01-11T01:43:27;52.67;;;30.43;;
17993;SDS011;9122;48.406;9.984;2024-01-11T01:46:12;55.30;;;31.93;;
17993;SDS011;9122;48.406;9.984;2024-01-11T01:49:03;55.27;;;34.57;;
17993;SDS011;9122;48.406;9.984;2024-01-11T01:51:48;58.10;;;32.27;;
17993;SDS011;9122;48.406;9.984;2024-01-11T01:54:34;53.30;;;32.77;;
17993;SDS011;9122;48.406;9.984;2024-01-11T01:57:19;49.10;;;31.13;;
17993;SDS011;9122;48.406;9.984;2024-01-11T02:00:04;56.60;;;33.00;;
17993;SDS011;9122;48.406;9.984;2024-01-11T02:02:50;54.50;;;31.93;;
17993;SDS011;9122;48.406;9.984;2024-01-11T02:05:36;59.33;;;34.47;;
17993;SDS011;9122;48.406;9.984;2024-01-11T02:08:21;58.30;;;32.37;;
17993;SDS011;9122;48.406;9.984;2024-01-11T02:11:09;52.10;;;31.73;;
17993;SDS011;9122;48.406;9.984;2024-01-11T02:13:55;58.17;;;32.73;;
17993;SDS011;9122;48.406;9.984;2024-01-11T02:16:39;57.37;;;31.10;;
17993;SDS011;9122;48.406;9.984;2024-01-11T02:19:23;57.17;;;32.10;;
17993;SDS011;9122;48.406;9.984;2024-01-11T02:22:15;52.07;;;30.13;;
17993;SDS011;9122;48.406;9.984;2024-01-11T02:25:05;55.03;;;30.93;;
17993;SDS011;9122;48.406;9.984;2024-01-11T02:27:50;49.87;;;29.90;;
17993;SDS011;9122;48.406;9.984;2024-01-11T02:30:35;50.40;;;30.70;;
17993;SDS011;9122;48.406;9.984;2024-01-11T02:33:20;52.87;;;30.13;;
17993;SDS011;9122;48.406;9.984;2024-01-11T02:36:05;55.00;;;30.63;;
17993;SDS011;9122;48.406;9.984;2024-01-11T02:38:50;49.40;;;29.93;;
17993;SDS011;9122;48.406;9.984;2024-01-11T02:41:38;49.03;;;29.77;;
17993;SDS011;9122;48.406;9.984;2024-01-11T02:44:22;53.53;;;29.93;;
17993;SDS011;9122;48.406;9.984;2024-01-11T02:47:07;50.50;;;27.50;;
17993;SDS011;9122;48.406;9.984;2024-01-11T02:49:52;47.00;;;27.80;;
17993;SDS011;9122;48.406;9.984;2024-01-11T02:52:36;50.90;;;29.53;;
17993;SDS011;9122;48.406;9.984;2024-01-11T02:55:20;46.60;;;27.33;;
17993;SDS011;9122;48.406;9.984;2024-01-11T02:58:04;55.00;;;28.07;;
17993;SDS011;9122;48.406;9.984;2024-01-11T03:00:48;43.40;;;27.67;;
17993;SDS011;9122;48.406;9.984;2024-01-11T03:03:32;52.30;;;29.60;;
17993;SDS011;9122;48.406;9.984;2024-01-11T03:06:17;46.13;;;28.17;;
17993;SDS011;9122;48.406;9.984;2024-01-11T03:09:05;46.93;;;28.77;;
17993;SDS011;9122;48.406;9.984;2024-01-11T03:11:49;56.97;;;30.27;;
17993;SDS011;9122;48.406;9.984;2024-01-11T03:14:34;48.47;;;28.93;;
17993;SDS011;9122;48.406;9.984;2024-01-11T03:17:18;54.70;;;31.17;;
17993;SDS011;9122;48.406;9.984;2024-01-11T03:20:03;56.00;;;30.83;;
17993;SDS011;9122;48.406;9.984;2024-01-11T03:22:49;51.30;;;29.93;;
17993;SDS011;9122;48.406;9.984;2024-01-11T03:25:33;53.87;;;31.37;;
17993;SDS011;9122;48.406;9.984;2024-01-11T03:28:17;57.17;;;30.83;;
17993;SDS011;9122;48.406;9.984;2024-01-11T03:31:01;50.40;;;30.30;;
17993;SDS011;9122;48.406;9.984;2024-01-11T03:33:46;54.10;;;30.87;;
17993;SDS011;9122;48.406;9.984;2024-01-11T03:36:30;56.47;;;29.90;;
17993;SDS011;9122;48.406;9.984;2024-01-11T03:39:14;53.23;;;28.87;;
17993;SDS011;9122;48.406;9.984;2024-01-11T03:41:58;52.53;;;29.57;;
17993;SDS011;9122;48.406;9.984;2024-01-11T03:44:42;49.87;;;29.17;;
17993;SDS011;9122;48.406;9.984;2024-01-11T03:47:27;54.43;;;29.83;;
17993;SDS011;9122;48.406;9.984;2024-01-11T03:50:12;57.40;;;30.53;;
17993;SDS011;9122;48.406;9.984;2024-01-11T03:52:56;55.33;;;29.40;;
17993;SDS011;9122;48.406;9.984;2024-01-11T03:55:41;55.47;;;30.77;;
17993;SDS011;9122;48.406;9.984;2024-01-11T03:58:25;52.03;;;29.43;;
17993;SDS011;9122;48.406;9.984;2024-01-11T04:01:10;56.50;;;29.53;;
17993;SDS011;9122;48.406;9.984;2024-01-11T04:03:55;48.80;;;28.17;;
17993;SDS011;9122;48.406;9.984;2024-01-11T04:06:39;56.00;;;30.97;;
17993;SDS011;9122;48.406;9.984;2024-01-11T04:09:24;48.63;;;29.20;;
17993;SDS011;9122;48.406;9.984;2024-01-11T04:12:08;57.37;;;31.60;;
17993;SDS011;9122;48.406;9.984;2024-01-11T04:14:53;51.47;;;30.33;;
17993;SDS011;9122;48.406;9.984;2024-01-11T04:17:38;54.50;;;30.47;;
17993;SDS011;9122;48.406;9.984;2024-01-11T04:20:23;55.23;;;32.00;;
17993;SDS011;9122;48.406;9.984;2024-01-11T04:23:08;54.17;;;30.53;;
17993;SDS011;9122;48.406;9.984;2024-01-11T04:25:52;55.90;;;30.53;;
17993;SDS011;9122;48.406;9.984;2024-01-11T04:28:37;54.93;;;31.73;;
17993;SDS011;9122;48.406;9.984;2024-01-11T04:31:21;47.73;;;27.60;;
17993;SDS011;9122;48.406;9.984;2024-01-11T04:34:05;54.47;;;31.50;;
17993;SDS011;9122;48.406;9.984;2024-01-11T04:36:50;56.97;;;30.57;;
17993;SDS011;9122;48.406;9.984;2024-01-11T04:39:34;51.37;;;30.03;;
17993;SDS011;9122;48.406;9.984;2024-01-11T04:42:18;51.47;;;29.73;;
17993;SDS011;9122;48.406;9.984;2024-01-11T04:45:02;52.53;;;29.67;;
17993;SDS011;9122;48.406;9.984;2024-01-11T04:47:50;50.00;;;29.13;;
17993;SDS011;9122;48.406;9.984;2024-01-11T04:50:35;52.47;;;29.93;;
17993;SDS011;9122;48.406;9.984;2024-01-11T04:53:19;54.70;;;30.47;;
17993;SDS011;9122;48.406;9.984;2024-01-11T04:56:03;55.93;;;31.60;;
17993;SDS011;9122;48.406;9.984;2024-01-11T04:58:48;54.80;;;30.63;;
17993;SDS011;9122;48.406;9.984;2024-01-11T05:01:35;62.63;;;32.40;;
17993;SDS011;9122;48.406;9.984;2024-01-11T05:04:19;60.00;;;32.03;;
17993;SDS011;9122;48.406;9.984;2024-01-11T05:07:04;60.23;;;30.93;;
17993;SDS011;9122;48.406;9.984;2024-01-11T05:09:48;52.73;;;33.23;;
17993;SDS011;9122;48.406;9.984;2024-01-11T05:12:32;59.70;;;32.70;;
17993;SDS011;9122;48.406;9.984;2024-01-11T05:15:16;60.87;;;32.83;;
17993;SDS011;9122;48.406;9.984;2024-01-11T05:18:01;53.93;;;32.60;;
17993;SDS011;9122;48.406;9.984;2024-01-11T05:20:46;57.70;;;31.83;;
17993;SDS011;9122;48.406;9.984;2024-01-11T05:23:30;62.23;;;33.40;;
17993;SDS011;9122;48.406;9.984;2024-01-11T05:26:15;55.17;;;32.73;;
17993;SDS011;9122;48.406;9.984;2024-01-11T05:29:00;59.07;;;30.63;;
17993;SDS011;9122;48.406;9.984;2024-01-11T05:31:46;62.07;;;34.23;;
17993;SDS011;9122;48.406;9.984;2024-01-11T05:34:31;61.67;;;32.97;;
17993;SDS011;9122;48.406;9.984;2024-01-11T05:37:16;55.13;;;31.23;;
17993;SDS011;9122;48.406;9.984;2024-01-11T05:40:01;55.50;;;31.93;;
17993;SDS011;9122;48.406;9.984;2024-01-11T05:42:47;58.60;;;32.87;;
17993;SDS011;9122;48.406;9.984;2024-01-11T05:45:32;60.57;;;33.23;;
17993;SDS011;9122;48.406;9.984;2024-01-11T05:48:24;63.37;;;34.20;;
17993;SDS011;9122;48.406;9.984;2024-01-11T05:51:09;56.33;;;32.10;;
17993;SDS011;9122;48.406;9.984;2024-01-11T05:53:59;60.53;;;32.30;;
17993;SDS011;9122;48.406;9.984;2024-01-11T05:56:43;69.13;;;36.43;;
17993;SDS011;9122;48.406;9.984;2024-01-11T05:59:28;61.50;;;33.40;;
17993;SDS011;9122;48.406;9.984;2024-01-11T06:02:13;67.57;;;35.03;;
17993;SDS011;9122;48.406;9.984;2024-01-11T06:04:59;57.73;;;34.40;;
17993;SDS011;9122;48.406;9.984;2024-01-11T06:07:43;61.83;;;33.17;;
17993;SDS011;9122;48.406;9.984;2024-01-11T06:10:29;66.10;;;34.00;;
17993;SDS011;9122;48.406;9.984;2024-01-11T06:13:15;61.50;;;33.73;;
17993;SDS011;9122;48.406;9.984;2024-01-11T06:15:59;63.97;;;34.53;;
17993;SDS011;9122;48.406;9.984;2024-01-11T06:18:44;62.70;;;36.37;;
17993;SDS011;9122;48.406;9.984;2024-01-11T06:21:28;66.50;;;35.43;;
17993;SDS011;9122;48.406;9.984;2024-01-11T06:24:12;68.30;;;35.47;;
17993;SDS011;9122;48.406;9.984;2024-01-11T06:26:56;62.13;;;36.17;;
17993;SDS011;9122;48.406;9.984;2024-01-11T06:29:41;62.30;;;35.60;;
17993;SDS011;9122;48.406;9.984;2024-01-11T06:32:27;63.20;;;35.40;;
17993;SDS011;9122;48.406;9.984;2024-01-11T06:35:12;68.33;;;36.63;;
17993;SDS011;9122;48.406;9.984;2024-01-11T06:37:56;69.23;;;35.97;;
17993;SDS011;9122;48.406;9.984;2024-01-11T06:40:41;59.70;;;35.50;;
17993;SDS011;9122;48.406;9.984;2024-01-11T06:43:27;64.80;;;36.40;;
17993;SDS011;9122;48.406;9.984;2024-01-11T06:46:11;61.73;;;33.87;;
17993;SDS011;9122;48.406;9.984;2024-01-11T06:48:56;65.73;;;37.77;;
17993;SDS011;9122;48.406;9.984;2024-01-11T06:51:40;65.60;;;35.60;;
17993;SDS011;9122;48.406;9.984;2024-01-11T06:54:24;60.00;;;34.90;;
17993;SDS011;9122;48.406;9.984;2024-01-11T06:57:08;66.07;;;36.40;;
17993;SDS011;9122;48.406;9.984;2024-01-11T06:59:53;62.00;;;35.63;;
17993;SDS011;9122;48.406;9.984;2024-01-11T07:02:37;59.90;;;35.43;;
17993;SDS011;9122;48.406;9.984;2024-01-11T07:05:24;68.00;;;36.10;;
17993;SDS011;9122;48.406;9.984;2024-01-11T07:08:08;66.93;;;37.20;;
17993;SDS011;9122;48.406;9.984;2024-01-11T07:10:52;63.03;;;35.60;;
17993;SDS011;9122;48.406;9.984;2024-01-11T07:13:37;64.67;;;35.87;;
17993;SDS011;9122;48.406;9.984;2024-01-11T07:16:22;65.70;;;35.13;;
17993;SDS011;9122;48.406;9.984;2024-01-11T07:19:06;69.27;;;38.07;;
17993;SDS011;9122;48.406;9.984;2024-01-11T07:21:51;65.20;;;37.53;;
17993;SDS011;9122;48.406;9.984;2024-01-11T07:24:35;66.87;;;37.13;;
17993;SDS011;9122;48.406;9.984;2024-01-11T07:27:20;66.87;;;38.20;;
17993;SDS011;9122;48.406;9.984;2024-01-11T07:30:05;70.37;;;40.97;;
17993;SDS011;9122;48.406;9.984;2024-01-11T07:32:53;92.53;;;46.70;;
17993;SDS011;9122;48.406;9.984;2024-01-11T07:35:37;70.57;;;38.33;;
17993;SDS011;9122;48.406;9.984;2024-01-11T07:38:22;67.33;;;39.33;;
17993;SDS011;9122;48.406;9.984;2024-01-11T07:41:06;65.50;;;36.87;;
17993;SDS011;9122;48.406;9.984;2024-01-11T07:43:50;71.90;;;39.53;;
17993;SDS011;9122;48.406;9.984;2024-01-11T07:46:34;74.80;;;39.67;;
17993;SDS011;9122;48.406;9.984;2024-01-11T07:49:20;67.73;;;36.97;;
17993;SDS011;9122;48.406;9.984;2024-01-11T07:52:04;66.23;;;39.37;;
17993;SDS011;9122;48.406;9.984;2024-01-11T07:54:49;69.63;;;37.90;;
17993;SDS011;9122;48.406;9.984;2024-01-11T07:57:34;68.93;;;38.67;;
17993;SDS011;9122;48.406;9.984;2024-01-11T08:00:18;67.63;;;37.80;;
17993;SDS011;9122;48.406;9.984;2024-01-11T08:03:03;60.20;;;37.07;;
17993;SDS011;9122;48.406;9.984;2024-01-11T08:05:48;70.73;;;38.20;;
17993;SDS011;9122;48.406;9.984;2024-01-11T08:08:34;65.13;;;36.73;;
17993;SDS011;9122;48.406;9.984;2024-01-11T08:11:20;69.97;;;38.23;;
17993;SDS011;9122;48.406;9.984;2024-01-11T08:14:04;68.90;;;40.63;;
17993;SDS011;9122;48.406;9.984;2024-01-11T08:16:49;64.10;;;37.33;;
17993;SDS011;9122;48.406;9.984;2024-01-11T08:19:34;71.23;;;40.13;;
17993;SDS011;9122;48.406;9.984;2024-01-11T08:22:18;67.30;;;40.20;;
17993;SDS011;9122;48.406;9.984;2024-01-11T08:25:03;71.43;;;38.07;;
17993;SDS011;9122;48.406;9.984;2024-01-11T08:27:48;65.80;;;39.23;;
17993;SDS011;9122;48.406;9.984;2024-01-11T08:30:33;65.03;;;38.63;;
17993;SDS011;9122;48.406;9.984;2024-01-11T08:33:18;73.40;;;40.57;;
17993;SDS011;9122;48.406;9.984;2024-01-11T08:36:04;74.33;;;38.77;;
17993;SDS011;9122;48.406;9.984;2024-01-11T08:38:48;75.27;;;39.20;;
17993;SDS011;9122;48.406;9.984;2024-01-11T08:41:33;66.70;;;39.70;;
17993;SDS011;9122;48.406;9.984;2024-01-11T08:44:18;70.07;;;40.33;;
17993;SDS011;9122;48.406;9.984;2024-01-11T08:47:03;70.33;;;39.43;;
17993;SDS011;9122;48.406;9.984;2024-01-11T08:49:48;66.83;;;41.43;;
17993;SDS011;9122;48.406;9.984;2024-01-11T08:52:33;63.97;;;39.23;;
17993;SDS011;9122;48.406;9.984;2024-01-11T08:55:18;69.67;;;39.63;;
17993;SDS011;9122;48.406;9.984;2024-01-11T08:58:03;74.50;;;39.33;;
17993;SDS011;9122;48.406;9.984;2024-01-11T09:00:47;68.97;;;38.13;;
17993;SDS011;9122;48.406;9.984;2024-01-11T09:03:32;68.17;;;38.47;;
17993;SDS011;9122;48.406;9.984;2024-01-11T09:06:17;78.90;;;40.57;;
17993;SDS011;9122;48.406;9.984;2024-01-11T09:09:01;71.73;;;40.33;;
17993;SDS011;9122;48.406;9.984;2024-01-11T09:11:46;61.97;;;35.93;;
17993;SDS011;9122;48.406;9.984;2024-01-11T09:14:30;59.17;;;34.60;;
17993;SDS011;9122;48.406;9.984;2024-01-11T09:17:14;61.33;;;37.70;;
17993;SDS011;9122;48.406;9.984;2024-01-11T09:19:59;66.67;;;38.13;;
17993;SDS011;9122;48.406;9.984;2024-01-11T09:22:43;64.97;;;37.90;;
17993;SDS011;9122;48.406;9.984;2024-01-11T09:25:29;62.17;;;36.73;;
17993;SDS011;9122;48.406;9.984;2024-01-11T09:28:14;67.37;;;37.43;;
17993;SDS011;9122;48.406;9.984;2024-01-11T09:30:59;66.80;;;37.80;;
17993;SDS011;9122;48.406;9.984;2024-01-11T09:33:45;66.97;;;38.73;;
17993;SDS011;9122;48.406;9.984;2024-01-11T09:36:30;57.03;;;36.27;;
17993;SDS011;9122;48.406;9.984;2024-01-11T09:39:14;67.57;;;37.97;;
17993;SDS011;9122;48.406;9.984;2024-01-11T09:42:04;67.17;;;38.00;;
17993;SDS011;9122;48.406;9.984;2024-01-11T09:44:53;57.67;;;36.43;;
17993;SDS011;9122;48.406;9.984;2024-01-11T09:47:39;58.40;;;36.60;;
17993;SDS011;9122;48.406;9.984;2024-01-11T09:50:24;63.07;;;38.63;;
17993;SDS011;9122;48.406;9.984;2024-01-11T09:53:09;64.83;;;37.23;;
17993;SDS011;9122;48.406;9.984;2024-01-11T09:55:53;59.53;;;37.53;;
17993;SDS011;9122;48.406;9.984;2024-01-11T09:58:40;64.93;;;37.97;;
17993;SDS011;9122;48.406;9.984;2024-01-11T10:01:30;67.80;;;37.63;;
17993;SDS011;9122;48.406;9.984;2024-01-11T10:04:15;66.47;;;37.90;;
17993;SDS011;9122;48.406;9.984;2024-01-11T10:07:00;66.60;;;37.60;;
17993;SDS011;9122;48.406;9.984;2024-01-11T10:09:48;69.07;;;38.30;;
17993;SDS011;9122;48.406;9.984;2024-01-11T10:12:36;63.37;;;38.53;;
17993;SDS011;9122;48.406;9.984;2024-01-11T10:15:21;66.10;;;38.17;;
17993;SDS011;9122;48.406;9.984;2024-01-11T10:18:08;64.00;;;37.80;;
17993;SDS011;9122;48.406;9.984;2024-01-11T10:20:53;66.77;;;38.43;;
17993;SDS011;9122;48.406;9.984;2024-01-11T10:23:37;72.53;;;41.20;;
17993;SDS011;9122;48.406;9.984;2024-01-11T10:26:22;70.43;;;39.47;;
17993;SDS011;9122;48.406;9.984;2024-01-11T10:29:08;63.93;;;36.53;;
17993;SDS011;9122;48.406;9.984;2024-01-11T10:31:55;64.80;;;39.73;;
17993;SDS011;9122;48.406;9.984;2024-01-11T10:34:40;72.63;;;40.80;;
17993;SDS011;9122;48.406;9.984;2024-01-11T10:37:25;67.53;;;39.57;;
17993;SDS011;9122;48.406;9.984;2024-01-11T10:40:12;62.87;;;37.07;;
17993;SDS011;9122;48.406;9.984;2024-01-11T10:42:59;64.03;;;36.57;;
17993;SDS011;9122;48.406;9.984;2024-01-11T10:45:45;63.03;;;39.10;;
17993;SDS011;9122;48.406;9.984;2024-01-11T10:48:35;65.10;;;37.23;;
17993;SDS011;9122;48.406;9.984;2024-01-11T10:51:26;65.80;;;37.97;;
17993;SDS011;9122;48.406;9.984;2024-01-11T10:54:15;68.13;;;40.50;;
17993;SDS011;9122;48.406;9.984;2024-01-11T10:57:00;69.23;;;40.27;;
17993;SDS011;9122;48.406;9.984;2024-01-11T10:59:48;64.23;;;38.60;;
17993;SDS011;9122;48.406;9.984;2024-01-11T11:02:33;70.40;;;40.33;;
17993;SDS011;9122;48.406;9.984;2024-01-11T11:05:18;66.37;;;39.17;;
17993;SDS011;9122;48.406;9.984;2024-01-11T11:08:04;65.27;;;37.53;;
17993;SDS011;9122;48.406;9.984;2024-01-11T11:10:51;70.07;;;38.27;;
17993;SDS011;9122;48.406;9.984;2024-01-11T11:13:39;65.13;;;38.37;;
17993;SDS011;9122;48.406;9.984;2024-01-11T11:16:25;68.97;;;40.07;;
17993;SDS011;9122;48.406;9.984;2024-01-11T11:19:09;66.33;;;39.40;;
17993;SDS011;9122;48.406;9.984;2024-01-11T11:21:55;67.70;;;40.00;;
17993;SDS011;9122;48.406;9.984;2024-01-11T11:24:40;64.90;;;39.83;;
17993;SDS011;9122;48.406;9.984;2024-01-11T11:27:24;74.30;;;39.90;;
17993;SDS011;9122;48.406;9.984;2024-01-11T11:30:09;66.20;;;40.70;;
17993;SDS011;9122;48.406;9.984;2024-01-11T11:32:54;78.60;;;41.60;;
17993;SDS011;9122;48.406;9.984;2024-01-11T11:35:39;70.10;;;42.37;;
17993;SDS011;9122;48.406;9.984;2024-01-11T11:38:23;79.23;;;44.77;;
17993;SDS011;9122;48.406;9.984;2024-01-11T11:41:17;74.47;;;42.27;;
17993;SDS011;9122;48.406;9.984;2024-01-11T11:44:03;72.23;;;39.47;;
17993;SDS011;9122;48.406;9.984;2024-01-11T11:46:48;66.37;;;40.10;;
17993;SDS011;9122;48.406;9.984;2024-01-11T11:52:55;71.10;;;41.43;;
17993;SDS011;9122;48.406;9.984;2024-01-11T11:55:40;62.60;;;39.53;;
17993;SDS011;9122;48.406;9.984;2024-01-11T11:58:25;63.00;;;41.33;;
17993;SDS011;9122;48.406;9.984;2024-01-11T12:01:10;74.80;;;42.10;;
17993;SDS011;9122;48.406;9.984;2024-01-11T12:03:54;67.37;;;40.73;;
17993;SDS011;9122;48.406;9.984;2024-01-11T12:06:39;67.83;;;41.70;;
17993;SDS011;9122;48.406;9.984;2024-01-11T12:09:24;68.27;;;40.53;;
17993;SDS011;9122;48.406;9.984;2024-01-11T12:12:08;66.03;;;40.47;;
17993;SDS011;9122;48.406;9.984;2024-01-11T12:14:53;66.43;;;42.03;;
17993;SDS011;9122;48.406;9.984;2024-01-11T12:17:37;63.80;;;41.23;;
17993;SDS011;9122;48.406;9.984;2024-01-11T12:20:26;63.50;;;42.63;;
17993;SDS011;9122;48.406;9.984;2024-01-11T12:23:12;65.47;;;41.60;;
17993;SDS011;9122;48.406;9.984;2024-01-11T12:26:03;67.67;;;42.60;;
17993;SDS011;9122;48.406;9.984;2024-01-11T12:28:51;69.73;;;42.50;;
17993;SDS011;9122;48.406;9.984;2024-01-11T12:31:36;67.30;;;42.53;;
17993;SDS011;9122;48.406;9.984;2024-01-11T12:34:20;62.23;;;40.40;;
17993;SDS011;9122;48.406;9.984;2024-01-11T12:37:05;68.27;;;41.13;;
17993;SDS011;9122;48.406;9.984;2024-01-11T12:39:49;65.10;;;42.03;;
17993;SDS011;9122;48.406;9.984;2024-01-11T12:42:40;69.87;;;43.27;;
17993;SDS011;9122;48.406;9.984;2024-01-11T12:45:24;72.17;;;41.70;;
17993;SDS011;9122;48.406;9.984;2024-01-11T12:48:13;66.87;;;42.67;;
17993;SDS011;9122;48.406;9.984;2024-01-11T12:50:59;74.43;;;43.87;;
17993;SDS011;9122;48.406;9.984;2024-01-11T12:53:47;67.90;;;44.07;;
17993;SDS011;9122;48.406;9.984;2024-01-11T12:56:32;64.33;;;40.47;;
17993;SDS011;9122;48.406;9.984;2024-01-11T12:59:17;66.17;;;41.17;;
17993;SDS011;9122;48.406;9.984;2024-01-11T13:02:02;68.63;;;41.93;;
17993;SDS011;9122;48.406;9.984;2024-01-11T13:04:47;69.30;;;41.43;;
17993;SDS011;9122;48.406;9.984;2024-01-11T13:07:34;70.40;;;42.70;;
17993;SDS011;9122;48.406;9.984;2024-01-11T13:10:20;72.13;;;42.83;;
17993;SDS011;9122;48.406;9.984;2024-01-11T13:13:08;67.93;;;45.23;;
17993;SDS011;9122;48.406;9.984;2024-01-11T13:15:52;68.67;;;42.73;;
17993;SDS011;9122;48.406;9.984;2024-01-11T13:18:36;66.67;;;44.60;;
17993;SDS011;9122;48.406;9.984;2024-01-11T13:21:21;68.20;;;42.63;;
17993;SDS011;9122;48.406;9.984;2024-01-11T13:24:06;68.83;;;43.83;;
17993;SDS011;9122;48.406;9.984;2024-01-11T13:26:53;66.17;;;42.37;;
17993;SDS011;9122;48.406;9.984;2024-01-11T13:29:39;66.60;;;43.60;;
17993;SDS011;9122;48.406;9.984;2024-01-11T13:32:23;63.13;;;42.03;;
17993;SDS011;9122;48.406;9.984;2024-01-11T13:35:08;68.60;;;43.93;;
17993;SDS011;9122;48.406;9.984;2024-01-11T13:37:52;65.20;;;43.63;;
17993;SDS011;9122;48.406;9.984;2024-01-11T13:40:37;65.53;;;41.17;;
17993;SDS011;9122;48.406;9.984;2024-01-11T13:43:23;62.07;;;42.20;;
17993;SDS011;9122;48.406;9.984;2024-01-11T13:46:08;68.03;;;41.60;;
17993;SDS011;9122;48.406;9.984;2024-01-11T13:48:53;71.10;;;42.83;;
17993;SDS011;9122;48.406;9.984;2024-01-11T13:51:37;59.90;;;42.20;;
17993;SDS011;9122;48.406;9.984;2024-01-11T13:54:22;70.13;;;45.23;;
17993;SDS011;9122;48.406;9.984;2024-01-11T13:57:06;70.93;;;43.03;;
17993;SDS011;9122;48.406;9.984;2024-01-11T13:59:51;71.33;;;45.67;;
17993;SDS011;9122;48.406;9.984;2024-01-11T14:02:36;60.80;;;41.33;;
17993;SDS011;9122;48.406;9.984;2024-01-11T14:05:21;63.73;;;42.97;;
17993;SDS011;9122;48.406;9.984;2024-01-11T14:08:05;66.10;;;42.63;;
17993;SDS011;9122;48.406;9.984;2024-01-11T14:10:51;68.80;;;43.73;;
17993;SDS011;9122;48.406;9.984;2024-01-11T14:13:35;65.50;;;42.30;;
17993;SDS011;9122;48.406;9.984;2024-01-11T14:16:20;69.90;;;45.60;;
17993;SDS011;9122;48.406;9.984;2024-01-11T14:19:05;64.50;;;42.27;;
17993;SDS011;9122;48.406;9.984;2024-01-11T14:21:49;68.20;;;42.20;;
17993;SDS011;9122;48.406;9.984;2024-01-11T14:24:34;69.50;;;43.43;;
17993;SDS011;9122;48.406;9.984;2024-01-11T14:27:19;67.70;;;44.63;;
17993;SDS011;9122;48.406;9.984;2024-01-11T14:30:05;66.30;;;42.53;;
17993;SDS011;9122;48.406;9.984;2024-01-11T14:32:51;68.20;;;43.63;;
17993;SDS011;9122;48.406;9.984;2024-01-11T14:35:35;65.53;;;43.33;;
17993;SDS011;9122;48.406;9.984;2024-01-11T14:38:19;63.37;;;42.50;;
17993;SDS011;9122;48.406;9.984;2024-01-11T14:41:03;68.13;;;42.37;;
17993;SDS011;9122;48.406;9.984;2024-01-11T14:43:48;66.03;;;44.10;;
17993;SDS011;9122;48.406;9.984;2024-01-11T14:46:32;68.47;;;42.70;;
17993;SDS011;9122;48.406;9.984;2024-01-11T14:49:16;68.17;;;43.60;;
17993;SDS011;9122;48.406;9.984;2024-01-11T14:52:01;65.03;;;42.77;;
17993;SDS011;9122;48.406;9.984;2024-01-11T14:54:46;77.10;;;46.33;;
17993;SDS011;9122;48.406;9.984;2024-01-11T14:57:33;70.20;;;44.87;;
17993;SDS011;9122;48.406;9.984;2024-01-11T15:00:17;69.67;;;44.87;;
17993;SDS011;9122;48.406;9.984;2024-01-11T15:03:01;71.40;;;47.03;;
17993;SDS011;9122;48.406;9.984;2024-01-11T15:05:47;66.93;;;43.43;;
17993;SDS011;9122;48.406;9.984;2024-01-11T15:08:32;69.00;;;44.33;;
17993;SDS011;9122;48.406;9.984;2024-01-11T15:11:16;68.30;;;45.77;;
17993;SDS011;9122;48.406;9.984;2024-01-11T15:14:00;69.20;;;44.67;;
17993;SDS011;9122;48.406;9.984;2024-01-11T15:16:45;65.67;;;44.10;;
17993;SDS011;9122;48.406;9.984;2024-01-11T15:19:34;66.27;;;44.23;;
17993;SDS011;9122;48.406;9.984;2024-01-11T15:22:18;79.90;;;48.40;;
17993;SDS011;9122;48.406;9.984;2024-01-11T15:25:02;74.03;;;45.50;;
17993;SDS011;9122;48.406;9.984;2024-01-11T15:27:46;72.97;;;43.83;;
17993;SDS011;9122;48.406;9.984;2024-01-11T15:30:30;71.53;;;45.33;;
17993;SDS011;9122;48.406;9.984;2024-01-11T15:33:15;72.80;;;45.40;;
17993;SDS011;9122;48.406;9.984;2024-01-11T15:36:00;73.77;;;45.20;;
17993;SDS011;9122;48.406;9.984;2024-01-11T15:38:45;72.57;;;45.80;;
17993;SDS011;9122;48.406;9.984;2024-01-11T15:41:30;74.53;;;44.20;;
17993;SDS011;9122;48.406;9.984;2024-01-11T15:44:14;64.67;;;43.17;;
17993;SDS011;9122;48.406;9.984;2024-01-11T15:46:59;70.63;;;45.53;;
17993;SDS011;9122;48.406;9.984;2024-01-11T15:49:44;68.77;;;43.00;;
17993;SDS011;9122;48.406;9.984;2024-01-11T15:52:28;68.13;;;42.60;;
17993;SDS011;9122;48.406;9.984;2024-01-11T15:55:12;73.17;;;45.33;;
17993;SDS011;9122;48.406;9.984;2024-01-11T15:57:57;67.47;;;43.27;;
17993;SDS011;9122;48.406;9.984;2024-01-11T16:00:44;68.53;;;43.43;;
17993;SDS011;9122;48.406;9.984;2024-01-11T16:03:28;70.93;;;44.70;;
17993;SDS011;9122;48.406;9.984;2024-01-11T16:06:13;72.67;;;44.07;;
17993;SDS011;9122;48.406;9.984;2024-01-11T16:08:58;69.27;;;44.33;;
17993;SDS011;9122;48.406;9.984;2024-01-11T16:11:42;78.80;;;45.03;;
17993;SDS011;9122;48.406;9.984;2024-01-11T16:14:26;66.30;;;43.57;;
17993;SDS011;9122;48.406;9.984;2024-01-11T16:17:11;73.50;;;44.10;;
17993;SDS011;9122;48.406;9.984;2024-01-11T16:19:56;76.57;;;47.40;;
17993;SDS011;9122;48.406;9.984;2024-01-11T16:22:40;72.60;;;47.07;;